sensor_id;sensor_type;location;lat;lon;timestamp;P1;durP1;ratioP1;P2;durP2;ratioP2
68655;SDS011;55638;51.122;13.606;2023-06-01T00:01:07;2.63;;;1.88;;
68655;SDS011;55638;51.122;13.606;2023-06-01T00:02:44;2.63;;;1.75;;
68655;SDS011;55638;51.122;13.606;2023-06-01T00:04:16;3.78;;;1.77;;
68655;SDS011;55638;51.122;13.606;2023-06-01T00:05:48;2.63;;;1.67;;
68655;SDS011;55638;51.122;13.606;2023-06-01T00:07:21;3.65;;;1.92;;
68655;SDS011;55638;51.122;13.606;2023-06-01T00:08:52;4.47;;;2.10;;
68655;SDS011;55638;51.122;13.606;2023-06-01T00:10:24;3.00;;;1.75;;
68655;SDS011;55638;51.122;13.606;2023-06-01T00:11:56;3.17;;;1.70;;
68655;SDS011;55638;51.122;13.606;2023-06-01T00:13:28;3.90;;;2.25;;
68655;SDS011;55638;51.122;13.606;2023-06-01T00:15:00;3.78;;;2.35;;
68655;SDS011;55638;51.122;13.606;2023-06-01T00:16:32;4.05;;;2.22;;
68655;SDS011;55638;51.122;13.606;2023-06-01T00:18:04;3.92;;;2.40;;
68655;SDS011;55638;51.122;13.606;2023-06-01T00:19:37;3.90;;;2.00;;
68655;SDS011;55638;51.122;13.606;2023-06-01T00:21:10;3.08;;;1.80;;
68655;SDS011;55638;51.122;13.606;2023-06-01T00:22:43;2.78;;;1.80;;
68655;SDS011;55638;51.122;13.606;2023-06-01T00:24:15;3.28;;;1.85;;
68655;SDS011;55638;51.122;13.606;2023-06-01T00:25:47;2.70;;;1.73;;
68655;SDS011;55638;51.122;13.606;2023-06-01T00:27:19;3.25;;;1.70;;
68655;SDS011;55638;51.122;13.606;2023-06-01T00:28:51;4.57;;;1.80;;
68655;SDS011;55638;51.122;13.606;2023-06-01T00:30:23;2.70;;;1.60;;
68655;SDS011;55638;51.122;13.606;2023-06-01T00:31:55;3.33;;;1.48;;
68655;SDS011;55638;51.122;13.606;2023-06-01T00:33:27;3.72;;;1.73;;
68655;SDS011;55638;51.122;13.606;2023-06-01T00:35:02;2.80;;;1.70;;
68655;SDS011;55638;51.122;13.606;2023-06-01T00:36:34;2.50;;;1.90;;
68655;SDS011;55638;51.122;13.606;2023-06-01T00:38:06;4.03;;;1.92;;
68655;SDS011;55638;51.122;13.606;2023-06-01T00:39:38;2.15;;;1.52;;
68655;SDS011;55638;51.122;13.606;2023-06-01T00:41:10;4.95;;;1.90;;
68655;SDS011;55638;51.122;13.606;2023-06-01T00:42:42;2.90;;;1.65;;
68655;SDS011;55638;51.122;13.606;2023-06-01T00:44:14;3.72;;;1.98;;
68655;SDS011;55638;51.122;13.606;2023-06-01T00:45:46;4.20;;;1.98;;
68655;SDS011;55638;51.122;13.606;2023-06-01T00:47:18;2.45;;;1.65;;
68655;SDS011;55638;51.122;13.606;2023-06-01T00:48:52;2.40;;;1.50;;
68655;SDS011;55638;51.122;13.606;2023-06-01T00:50:24;2.40;;;1.52;;
68655;SDS011;55638;51.122;13.606;2023-06-01T00:51:56;2.25;;;1.55;;
68655;SDS011;55638;51.122;13.606;2023-06-01T00:53:28;2.38;;;1.58;;
68655;SDS011;55638;51.122;13.606;2023-06-01T00:55:00;3.10;;;1.77;;
68655;SDS011;55638;51.122;13.606;2023-06-01T00:56:32;2.08;;;1.40;;
68655;SDS011;55638;51.122;13.606;2023-06-01T00:58:06;3.80;;;2.05;;
68655;SDS011;55638;51.122;13.606;2023-06-01T00:59:38;3.03;;;2.15;;
68655;SDS011;55638;51.122;13.606;2023-06-01T01:01:11;3.85;;;2.53;;
68655;SDS011;55638;51.122;13.606;2023-06-01T01:02:55;4.25;;;2.88;;
68655;SDS011;55638;51.122;13.606;2023-06-01T01:04:28;3.78;;;2.53;;
68655;SDS011;55638;51.122;13.606;2023-06-01T01:06:10;4.03;;;2.83;;
68655;SDS011;55638;51.122;13.606;2023-06-01T01:08:06;3.60;;;2.90;;
68655;SDS011;55638;51.122;13.606;2023-06-01T01:11:23;4.18;;;2.40;;
68655;SDS011;55638;51.122;13.606;2023-06-01T01:13:00;4.22;;;2.45;;
68655;SDS011;55638;51.122;13.606;2023-06-01T01:14:44;3.55;;;2.70;;
68655;SDS011;55638;51.122;13.606;2023-06-01T01:16:24;5.03;;;2.75;;
68655;SDS011;55638;51.122;13.606;2023-06-01T01:18:03;6.35;;;2.65;;
68655;SDS011;55638;51.122;13.606;2023-06-01T01:19:50;3.83;;;2.40;;
68655;SDS011;55638;51.122;13.606;2023-06-01T01:21:32;4.07;;;2.47;;
68655;SDS011;55638;51.122;13.606;2023-06-01T01:27:10;3.10;;;2.25;;
68655;SDS011;55638;51.122;13.606;2023-06-01T01:29:03;2.92;;;2.03;;
68655;SDS011;55638;51.122;13.606;2023-06-01T01:30:40;5.38;;;2.50;;
68655;SDS011;55638;51.122;13.606;2023-06-01T01:32:13;3.10;;;2.20;;
68655;SDS011;55638;51.122;13.606;2023-06-01T01:33:46;4.60;;;2.45;;
68655;SDS011;55638;51.122;13.606;2023-06-01T01:35:20;4.15;;;1.88;;
68655;SDS011;55638;51.122;13.606;2023-06-01T01:36:54;2.67;;;2.10;;
68655;SDS011;55638;51.122;13.606;2023-06-01T01:38:26;2.78;;;1.90;;
68655;SDS011;55638;51.122;13.606;2023-06-01T01:39:58;3.20;;;2.13;;
68655;SDS011;55638;51.122;13.606;2023-06-01T01:41:30;3.67;;;2.10;;
68655;SDS011;55638;51.122;13.606;2023-06-01T01:43:02;3.85;;;1.90;;
68655;SDS011;55638;51.122;13.606;2023-06-01T01:44:34;2.72;;;1.80;;
68655;SDS011;55638;51.122;13.606;2023-06-01T01:46:13;2.83;;;2.10;;
68655;SDS011;55638;51.122;13.606;2023-06-01T01:48:00;3.58;;;1.75;;
68655;SDS011;55638;51.122;13.606;2023-06-01T01:49:40;3.17;;;1.75;;
68655;SDS011;55638;51.122;13.606;2023-06-01T01:51:16;2.92;;;1.80;;
68655;SDS011;55638;51.122;13.606;2023-06-01T01:52:53;2.08;;;1.63;;
68655;SDS011;55638;51.122;13.606;2023-06-01T01:54:27;2.55;;;1.73;;
68655;SDS011;55638;51.122;13.606;2023-06-01T01:56:02;1.88;;;1.67;;
68655;SDS011;55638;51.122;13.606;2023-06-01T01:57:36;4.35;;;1.70;;
68655;SDS011;55638;51.122;13.606;2023-06-01T01:59:08;2.67;;;1.50;;
68655;SDS011;55638;51.122;13.606;2023-06-01T02:00:41;2.72;;;2.22;;
68655;SDS011;55638;51.122;13.606;2023-06-01T02:02:14;3.75;;;2.08;;
68655;SDS011;55638;51.122;13.606;2023-06-01T02:03:47;4.55;;;1.80;;
68655;SDS011;55638;51.122;13.606;2023-06-01T02:05:29;3.33;;;1.80;;
68655;SDS011;55638;51.122;13.606;2023-06-01T02:07:01;2.55;;;1.83;;
68655;SDS011;55638;51.122;13.606;2023-06-01T02:08:36;2.05;;;1.50;;
68655;SDS011;55638;51.122;13.606;2023-06-01T02:10:08;2.95;;;1.70;;
68655;SDS011;55638;51.122;13.606;2023-06-01T02:11:40;1.77;;;1.50;;
68655;SDS011;55638;51.122;13.606;2023-06-01T02:13:12;2.53;;;1.58;;
68655;SDS011;55638;51.122;13.606;2023-06-01T02:14:44;2.45;;;1.70;;
68655;SDS011;55638;51.122;13.606;2023-06-01T02:16:16;3.38;;;1.63;;
68655;SDS011;55638;51.122;13.606;2023-06-01T02:17:49;2.70;;;1.90;;
68655;SDS011;55638;51.122;13.606;2023-06-01T02:19:21;2.38;;;1.77;;
68655;SDS011;55638;51.122;13.606;2023-06-01T02:20:54;3.83;;;1.83;;
68655;SDS011;55638;51.122;13.606;2023-06-01T02:22:25;2.60;;;1.60;;
68655;SDS011;55638;51.122;13.606;2023-06-01T02:23:58;2.38;;;1.67;;
68655;SDS011;55638;51.122;13.606;2023-06-01T02:25:36;2.15;;;1.40;;
68655;SDS011;55638;51.122;13.606;2023-06-01T02:27:08;1.85;;;1.40;;
68655;SDS011;55638;51.122;13.606;2023-06-01T02:28:40;3.20;;;1.70;;
68655;SDS011;55638;51.122;13.606;2023-06-01T02:30:14;2.60;;;1.48;;
68655;SDS011;55638;51.122;13.606;2023-06-01T02:31:46;1.90;;;1.40;;
68655;SDS011;55638;51.122;13.606;2023-06-01T02:33:19;2.08;;;1.52;;
68655;SDS011;55638;51.122;13.606;2023-06-01T02:34:50;2.28;;;1.70;;
68655;SDS011;55638;51.122;13.606;2023-06-01T02:36:22;1.40;;;1.13;;
68655;SDS011;55638;51.122;13.606;2023-06-01T02:37:56;2.70;;;1.45;;
68655;SDS011;55638;51.122;13.606;2023-06-01T02:39:28;2.88;;;1.23;;
68655;SDS011;55638;51.122;13.606;2023-06-01T02:41:00;2.10;;;1.35;;
68655;SDS011;55638;51.122;13.606;2023-06-01T02:42:33;2.13;;;1.65;;
68655;SDS011;55638;51.122;13.606;2023-06-01T02:44:05;3.83;;;1.80;;
68655;SDS011;55638;51.122;13.606;2023-06-01T02:45:37;2.42;;;1.70;;
68655;SDS011;55638;51.122;13.606;2023-06-01T02:47:11;1.95;;;1.50;;
68655;SDS011;55638;51.122;13.606;2023-06-01T02:48:43;1.58;;;1.30;;
68655;SDS011;55638;51.122;13.606;2023-06-01T02:50:15;2.45;;;1.60;;
68655;SDS011;55638;51.122;13.606;2023-06-01T02:51:51;2.33;;;1.50;;
68655;SDS011;55638;51.122;13.606;2023-06-01T02:53:25;2.20;;;1.50;;
68655;SDS011;55638;51.122;13.606;2023-06-01T02:55:00;3.33;;;1.75;;
68655;SDS011;55638;51.122;13.606;2023-06-01T02:56:57;2.10;;;1.50;;
68655;SDS011;55638;51.122;13.606;2023-06-01T02:58:37;2.03;;;1.42;;
68655;SDS011;55638;51.122;13.606;2023-06-01T03:00:27;2.90;;;1.50;;
68655;SDS011;55638;51.122;13.606;2023-06-01T03:01:59;2.53;;;1.58;;
68655;SDS011;55638;51.122;13.606;2023-06-01T03:03:32;2.28;;;1.63;;
68655;SDS011;55638;51.122;13.606;2023-06-01T03:05:04;2.60;;;1.75;;
68655;SDS011;55638;51.122;13.606;2023-06-01T03:06:38;3.13;;;1.83;;
68655;SDS011;55638;51.122;13.606;2023-06-01T03:08:29;2.22;;;1.70;;
68655;SDS011;55638;51.122;13.606;2023-06-01T03:10:01;3.10;;;1.88;;
68655;SDS011;55638;51.122;13.606;2023-06-01T03:11:57;1.85;;;1.50;;
68655;SDS011;55638;51.122;13.606;2023-06-01T03:13:29;2.78;;;1.65;;
68655;SDS011;55638;51.122;13.606;2023-06-01T03:15:01;2.60;;;1.63;;
68655;SDS011;55638;51.122;13.606;2023-06-01T03:16:34;3.20;;;1.88;;
68655;SDS011;55638;51.122;13.606;2023-06-01T03:18:17;5.78;;;1.80;;
68655;SDS011;55638;51.122;13.606;2023-06-01T03:19:49;3.00;;;1.83;;
68655;SDS011;55638;51.122;13.606;2023-06-01T03:21:25;2.50;;;1.95;;
68655;SDS011;55638;51.122;13.606;2023-06-01T03:22:59;6.15;;;2.33;;
68655;SDS011;55638;51.122;13.606;2023-06-01T03:24:31;3.53;;;2.40;;
68655;SDS011;55638;51.122;13.606;2023-06-01T03:26:06;3.42;;;2.13;;
68655;SDS011;55638;51.122;13.606;2023-06-01T03:27:38;3.88;;;2.17;;
68655;SDS011;55638;51.122;13.606;2023-06-01T03:29:12;2.72;;;2.13;;
68655;SDS011;55638;51.122;13.606;2023-06-01T03:30:44;3.75;;;2.90;;
68655;SDS011;55638;51.122;13.606;2023-06-01T03:32:17;2.88;;;2.22;;
68655;SDS011;55638;51.122;13.606;2023-06-01T03:33:49;2.78;;;2.25;;
68655;SDS011;55638;51.122;13.606;2023-06-01T03:35:20;3.08;;;2.15;;
68655;SDS011;55638;51.122;13.606;2023-06-01T03:36:53;2.97;;;1.83;;
68655;SDS011;55638;51.122;13.606;2023-06-01T03:38:25;3.15;;;1.70;;
68655;SDS011;55638;51.122;13.606;2023-06-01T03:39:57;3.90;;;1.95;;
68655;SDS011;55638;51.122;13.606;2023-06-01T03:41:34;3.58;;;1.98;;
68655;SDS011;55638;51.122;13.606;2023-06-01T03:43:08;2.97;;;1.90;;
68655;SDS011;55638;51.122;13.606;2023-06-01T03:44:40;3.42;;;1.88;;
68655;SDS011;55638;51.122;13.606;2023-06-01T03:46:13;3.33;;;1.85;;
68655;SDS011;55638;51.122;13.606;2023-06-01T03:47:46;3.25;;;2.28;;
68655;SDS011;55638;51.122;13.606;2023-06-01T03:49:18;3.00;;;1.63;;
68655;SDS011;55638;51.122;13.606;2023-06-01T03:50:50;4.07;;;2.20;;
68655;SDS011;55638;51.122;13.606;2023-06-01T03:52:22;3.47;;;2.15;;
68655;SDS011;55638;51.122;13.606;2023-06-01T03:53:54;5.30;;;2.35;;
68655;SDS011;55638;51.122;13.606;2023-06-01T03:55:27;4.32;;;1.88;;
68655;SDS011;55638;51.122;13.606;2023-06-01T03:57:31;3.08;;;2.15;;
68655;SDS011;55638;51.122;13.606;2023-06-01T03:59:03;4.43;;;2.03;;
68655;SDS011;55638;51.122;13.606;2023-06-01T04:00:36;3.08;;;2.00;;
68655;SDS011;55638;51.122;13.606;2023-06-01T04:02:08;3.50;;;1.98;;
68655;SDS011;55638;51.122;13.606;2023-06-01T04:03:41;2.95;;;2.00;;
68655;SDS011;55638;51.122;13.606;2023-06-01T04:05:15;3.13;;;1.90;;
68655;SDS011;55638;51.122;13.606;2023-06-01T04:06:48;3.42;;;1.98;;
68655;SDS011;55638;51.122;13.606;2023-06-01T04:08:21;2.90;;;1.73;;
68655;SDS011;55638;51.122;13.606;2023-06-01T04:09:53;2.83;;;1.70;;
68655;SDS011;55638;51.122;13.606;2023-06-01T04:11:26;3.53;;;2.10;;
68655;SDS011;55638;51.122;13.606;2023-06-01T04:12:59;4.60;;;1.90;;
68655;SDS011;55638;51.122;13.606;2023-06-01T04:14:34;4.18;;;2.15;;
68655;SDS011;55638;51.122;13.606;2023-06-01T04:16:07;3.22;;;2.00;;
68655;SDS011;55638;51.122;13.606;2023-06-01T04:17:39;2.22;;;1.65;;
68655;SDS011;55638;51.122;13.606;2023-06-01T04:19:12;3.05;;;1.83;;
68655;SDS011;55638;51.122;13.606;2023-06-01T04:20:45;3.15;;;1.98;;
68655;SDS011;55638;51.122;13.606;2023-06-01T04:22:17;3.40;;;2.10;;
68655;SDS011;55638;51.122;13.606;2023-06-01T04:23:49;2.85;;;1.80;;
68655;SDS011;55638;51.122;13.606;2023-06-01T04:25:24;3.50;;;1.83;;
68655;SDS011;55638;51.122;13.606;2023-06-01T04:26:56;2.40;;;1.90;;
68655;SDS011;55638;51.122;13.606;2023-06-01T04:28:28;4.57;;;1.80;;
68655;SDS011;55638;51.122;13.606;2023-06-01T04:30:01;3.75;;;1.88;;
68655;SDS011;55638;51.122;13.606;2023-06-01T04:31:40;3.05;;;1.90;;
68655;SDS011;55638;51.122;13.606;2023-06-01T04:33:12;2.70;;;1.70;;
68655;SDS011;55638;51.122;13.606;2023-06-01T04:34:49;2.45;;;1.67;;
68655;SDS011;55638;51.122;13.606;2023-06-01T04:36:24;3.25;;;1.90;;
68655;SDS011;55638;51.122;13.606;2023-06-01T04:38:01;2.50;;;1.98;;
68655;SDS011;55638;51.122;13.606;2023-06-01T04:39:34;5.32;;;2.00;;
68655;SDS011;55638;51.122;13.606;2023-06-01T04:41:07;2.28;;;1.80;;
68655;SDS011;55638;51.122;13.606;2023-06-01T04:42:43;2.58;;;1.70;;
68655;SDS011;55638;51.122;13.606;2023-06-01T04:44:28;2.78;;;1.95;;
68655;SDS011;55638;51.122;13.606;2023-06-01T04:46:01;2.88;;;2.08;;
68655;SDS011;55638;51.122;13.606;2023-06-01T04:47:37;2.55;;;1.85;;
68655;SDS011;55638;51.122;13.606;2023-06-01T04:49:17;3.45;;;2.13;;
68655;SDS011;55638;51.122;13.606;2023-06-01T04:50:50;4.30;;;1.75;;
68655;SDS011;55638;51.122;13.606;2023-06-01T04:52:22;2.28;;;1.60;;
68655;SDS011;55638;51.122;13.606;2023-06-01T04:53:56;2.20;;;1.50;;
68655;SDS011;55638;51.122;13.606;2023-06-01T04:55:28;3.35;;;2.00;;
68655;SDS011;55638;51.122;13.606;2023-06-01T04:57:03;3.10;;;1.63;;
68655;SDS011;55638;51.122;13.606;2023-06-01T04:58:37;3.97;;;1.73;;
68655;SDS011;55638;51.122;13.606;2023-06-01T05:00:09;2.65;;;1.63;;
68655;SDS011;55638;51.122;13.606;2023-06-01T05:01:43;2.28;;;1.80;;
68655;SDS011;55638;51.122;13.606;2023-06-01T05:03:15;3.05;;;2.08;;
68655;SDS011;55638;51.122;13.606;2023-06-01T05:04:47;3.70;;;1.52;;
68655;SDS011;55638;51.122;13.606;2023-06-01T05:06:19;3.90;;;1.88;;
68655;SDS011;55638;51.122;13.606;2023-06-01T05:07:52;3.97;;;1.90;;
68655;SDS011;55638;51.122;13.606;2023-06-01T05:09:24;2.28;;;1.75;;
68655;SDS011;55638;51.122;13.606;2023-06-01T05:10:56;2.60;;;1.80;;
68655;SDS011;55638;51.122;13.606;2023-06-01T05:12:28;3.15;;;1.67;;
68655;SDS011;55638;51.122;13.606;2023-06-01T05:14:00;2.72;;;1.90;;
68655;SDS011;55638;51.122;13.606;2023-06-01T05:15:36;4.13;;;2.10;;
68655;SDS011;55638;51.122;13.606;2023-06-01T05:17:08;3.50;;;1.98;;
68655;SDS011;55638;51.122;13.606;2023-06-01T05:18:40;2.15;;;1.67;;
68655;SDS011;55638;51.122;13.606;2023-06-01T05:20:13;4.05;;;2.00;;
68655;SDS011;55638;51.122;13.606;2023-06-01T05:21:48;3.20;;;2.00;;
68655;SDS011;55638;51.122;13.606;2023-06-01T05:23:23;2.63;;;1.90;;
68655;SDS011;55638;51.122;13.606;2023-06-01T05:24:56;1.83;;;1.60;;
68655;SDS011;55638;51.122;13.606;2023-06-01T05:26:29;3.83;;;2.25;;
68655;SDS011;55638;51.122;13.606;2023-06-01T05:28:02;2.65;;;2.00;;
68655;SDS011;55638;51.122;13.606;2023-06-01T05:29:35;3.30;;;2.03;;
68655;SDS011;55638;51.122;13.606;2023-06-01T05:31:07;3.85;;;2.17;;
68655;SDS011;55638;51.122;13.606;2023-06-01T05:32:45;3.97;;;1.90;;
68655;SDS011;55638;51.122;13.606;2023-06-01T05:34:22;2.38;;;1.75;;
68655;SDS011;55638;51.122;13.606;2023-06-01T05:35:54;2.13;;;1.67;;
68655;SDS011;55638;51.122;13.606;2023-06-01T05:37:29;3.05;;;2.00;;
68655;SDS011;55638;51.122;13.606;2023-06-01T05:39:01;2.88;;;1.75;;
68655;SDS011;55638;51.122;13.606;2023-06-01T05:40:33;2.50;;;1.70;;
68655;SDS011;55638;51.122;13.606;2023-06-01T05:42:05;2.67;;;1.90;;
68655;SDS011;55638;51.122;13.606;2023-06-01T05:43:42;2.03;;;1.65;;
68655;SDS011;55638;51.122;13.606;2023-06-01T05:45:14;3.28;;;1.58;;
68655;SDS011;55638;51.122;13.606;2023-06-01T05:46:47;2.42;;;1.90;;
68655;SDS011;55638;51.122;13.606;2023-06-01T05:48:19;2.80;;;1.88;;
68655;SDS011;55638;51.122;13.606;2023-06-01T05:49:55;2.63;;;1.55;;
68655;SDS011;55638;51.122;13.606;2023-06-01T05:51:27;1.73;;;1.48;;
68655;SDS011;55638;51.122;13.606;2023-06-01T05:52:59;3.40;;;1.70;;
68655;SDS011;55638;51.122;13.606;2023-06-01T05:54:31;2.90;;;1.63;;
68655;SDS011;55638;51.122;13.606;2023-06-01T05:56:04;2.63;;;1.80;;
68655;SDS011;55638;51.122;13.606;2023-06-01T05:57:36;3.55;;;1.70;;
68655;SDS011;55638;51.122;13.606;2023-06-01T05:59:08;2.80;;;1.40;;
68655;SDS011;55638;51.122;13.606;2023-06-01T06:00:41;3.08;;;1.65;;
68655;SDS011;55638;51.122;13.606;2023-06-01T06:02:13;2.08;;;1.58;;
68655;SDS011;55638;51.122;13.606;2023-06-01T06:03:45;1.63;;;1.25;;
68655;SDS011;55638;51.122;13.606;2023-06-01T06:05:18;4.05;;;1.50;;
68655;SDS011;55638;51.122;13.606;2023-06-01T06:06:50;2.20;;;1.40;;
68655;SDS011;55638;51.122;13.606;2023-06-01T06:08:21;2.63;;;1.92;;
68655;SDS011;55638;51.122;13.606;2023-06-01T06:09:53;2.42;;;1.60;;
68655;SDS011;55638;51.122;13.606;2023-06-01T06:11:26;2.55;;;1.40;;
68655;SDS011;55638;51.122;13.606;2023-06-01T06:12:58;2.10;;;1.55;;
68655;SDS011;55638;51.122;13.606;2023-06-01T06:14:30;3.85;;;1.80;;
68655;SDS011;55638;51.122;13.606;2023-06-01T06:16:02;2.47;;;1.55;;
68655;SDS011;55638;51.122;13.606;2023-06-01T06:17:34;2.78;;;1.65;;
68655;SDS011;55638;51.122;13.606;2023-06-01T06:19:06;1.88;;;1.50;;
68655;SDS011;55638;51.122;13.606;2023-06-01T06:20:38;3.35;;;1.60;;
68655;SDS011;55638;51.122;13.606;2023-06-01T06:22:10;2.75;;;1.80;;
68655;SDS011;55638;51.122;13.606;2023-06-01T06:23:42;2.15;;;1.58;;
68655;SDS011;55638;51.122;13.606;2023-06-01T06:25:14;2.65;;;1.77;;
68655;SDS011;55638;51.122;13.606;2023-06-01T06:26:46;2.15;;;1.60;;
68655;SDS011;55638;51.122;13.606;2023-06-01T06:28:19;3.15;;;1.60;;
68655;SDS011;55638;51.122;13.606;2023-06-01T06:29:51;3.72;;;1.60;;
68655;SDS011;55638;51.122;13.606;2023-06-01T06:31:23;2.70;;;1.65;;
68655;SDS011;55638;51.122;13.606;2023-06-01T06:32:55;3.72;;;1.75;;
68655;SDS011;55638;51.122;13.606;2023-06-01T06:34:28;2.05;;;1.70;;
68655;SDS011;55638;51.122;13.606;2023-06-01T06:36:06;2.33;;;1.60;;
68655;SDS011;55638;51.122;13.606;2023-06-01T06:37:41;2.78;;;1.70;;
68655;SDS011;55638;51.122;13.606;2023-06-01T06:39:13;1.90;;;1.45;;
68655;SDS011;55638;51.122;13.606;2023-06-01T06:40:46;1.85;;;1.42;;
68655;SDS011;55638;51.122;13.606;2023-06-01T06:42:18;2.80;;;1.50;;
68655;SDS011;55638;51.122;13.606;2023-06-01T06:43:50;2.67;;;1.65;;
68655;SDS011;55638;51.122;13.606;2023-06-01T06:45:22;3.13;;;1.88;;
68655;SDS011;55638;51.122;13.606;2023-06-01T06:46:54;2.22;;;1.55;;
68655;SDS011;55638;51.122;13.606;2023-06-01T06:48:26;3.17;;;1.88;;
68655;SDS011;55638;51.122;13.606;2023-06-01T06:49:58;2.03;;;1.60;;
68655;SDS011;55638;51.122;13.606;2023-06-01T06:51:30;2.38;;;1.60;;
68655;SDS011;55638;51.122;13.606;2023-06-01T06:53:02;4.22;;;1.90;;
68655;SDS011;55638;51.122;13.606;2023-06-01T06:54:35;6.07;;;2.22;;
68655;SDS011;55638;51.122;13.606;2023-06-01T06:56:07;2.15;;;1.70;;
68655;SDS011;55638;51.122;13.606;2023-06-01T06:57:39;1.98;;;1.50;;
68655;SDS011;55638;51.122;13.606;2023-06-01T06:59:12;2.10;;;1.60;;
68655;SDS011;55638;51.122;13.606;2023-06-01T07:00:44;2.30;;;1.70;;
68655;SDS011;55638;51.122;13.606;2023-06-01T07:02:16;3.00;;;1.63;;
68655;SDS011;55638;51.122;13.606;2023-06-01T07:03:48;3.72;;;2.00;;
68655;SDS011;55638;51.122;13.606;2023-06-01T07:05:20;2.90;;;1.70;;
68655;SDS011;55638;51.122;13.606;2023-06-01T07:06:52;3.97;;;1.80;;
68655;SDS011;55638;51.122;13.606;2023-06-01T07:08:25;2.03;;;1.67;;
68655;SDS011;55638;51.122;13.606;2023-06-01T07:09:58;1.63;;;1.40;;
68655;SDS011;55638;51.122;13.606;2023-06-01T07:11:30;2.90;;;1.83;;
68655;SDS011;55638;51.122;13.606;2023-06-01T07:13:02;3.20;;;2.05;;
68655;SDS011;55638;51.122;13.606;2023-06-01T07:14:34;2.45;;;1.80;;
68655;SDS011;55638;51.122;13.606;2023-06-01T07:16:06;2.28;;;1.55;;
68655;SDS011;55638;51.122;13.606;2023-06-01T07:17:38;2.17;;;1.95;;
68655;SDS011;55638;51.122;13.606;2023-06-01T07:19:10;3.45;;;2.00;;
68655;SDS011;55638;51.122;13.606;2023-06-01T07:20:42;2.88;;;1.63;;
68655;SDS011;55638;51.122;13.606;2023-06-01T07:22:14;2.90;;;1.80;;
68655;SDS011;55638;51.122;13.606;2023-06-01T07:23:45;2.00;;;1.67;;
68655;SDS011;55638;51.122;13.606;2023-06-01T07:25:17;3.08;;;1.75;;
68655;SDS011;55638;51.122;13.606;2023-06-01T07:26:49;2.22;;;1.45;;
68655;SDS011;55638;51.122;13.606;2023-06-01T07:28:22;2.28;;;1.65;;
68655;SDS011;55638;51.122;13.606;2023-06-01T07:29:56;1.90;;;1.55;;
68655;SDS011;55638;51.122;13.606;2023-06-01T07:31:29;2.60;;;1.70;;
68655;SDS011;55638;51.122;13.606;2023-06-01T07:33:01;1.88;;;1.30;;
68655;SDS011;55638;51.122;13.606;2023-06-01T07:34:36;2.97;;;1.83;;
68655;SDS011;55638;51.122;13.606;2023-06-01T07:36:08;2.25;;;1.65;;
68655;SDS011;55638;51.122;13.606;2023-06-01T07:37:40;4.80;;;1.80;;
68655;SDS011;55638;51.122;13.606;2023-06-01T07:39:12;3.13;;;1.70;;
68655;SDS011;55638;51.122;13.606;2023-06-01T07:40:45;3.90;;;1.75;;
68655;SDS011;55638;51.122;13.606;2023-06-01T07:42:17;2.50;;;1.83;;
68655;SDS011;55638;51.122;13.606;2023-06-01T07:43:49;3.50;;;2.08;;
68655;SDS011;55638;51.122;13.606;2023-06-01T07:45:22;2.38;;;1.50;;
68655;SDS011;55638;51.122;13.606;2023-06-01T07:46:54;2.50;;;1.83;;
68655;SDS011;55638;51.122;13.606;2023-06-01T07:48:26;4.38;;;1.70;;
68655;SDS011;55638;51.122;13.606;2023-06-01T07:49:58;3.70;;;1.70;;
68655;SDS011;55638;51.122;13.606;2023-06-01T07:51:30;2.38;;;1.60;;
68655;SDS011;55638;51.122;13.606;2023-06-01T07:53:03;2.28;;;1.50;;
68655;SDS011;55638;51.122;13.606;2023-06-01T07:54:35;3.00;;;1.90;;
68655;SDS011;55638;51.122;13.606;2023-06-01T07:56:08;2.75;;;1.63;;
68655;SDS011;55638;51.122;13.606;2023-06-01T07:57:39;4.72;;;1.88;;
68655;SDS011;55638;51.122;13.606;2023-06-01T07:59:12;2.72;;;1.77;;
68655;SDS011;55638;51.122;13.606;2023-06-01T08:00:44;2.10;;;1.48;;
68655;SDS011;55638;51.122;13.606;2023-06-01T08:02:17;2.28;;;1.67;;
68655;SDS011;55638;51.122;13.606;2023-06-01T08:03:48;3.33;;;2.10;;
68655;SDS011;55638;51.122;13.606;2023-06-01T08:05:21;2.15;;;1.58;;
68655;SDS011;55638;51.122;13.606;2023-06-01T08:06:53;2.38;;;1.48;;
68655;SDS011;55638;51.122;13.606;2023-06-01T08:08:27;2.58;;;1.40;;
68655;SDS011;55638;51.122;13.606;2023-06-01T08:10:00;2.38;;;1.98;;
68655;SDS011;55638;51.122;13.606;2023-06-01T08:11:32;3.20;;;2.00;;
68655;SDS011;55638;51.122;13.606;2023-06-01T08:13:04;4.18;;;1.67;;
68655;SDS011;55638;51.122;13.606;2023-06-01T08:14:38;2.65;;;1.80;;
68655;SDS011;55638;51.122;13.606;2023-06-01T08:16:12;2.42;;;1.50;;
68655;SDS011;55638;51.122;13.606;2023-06-01T08:17:44;2.00;;;1.73;;
68655;SDS011;55638;51.122;13.606;2023-06-01T08:19:17;2.85;;;1.67;;
68655;SDS011;55638;51.122;13.606;2023-06-01T08:20:49;3.25;;;1.60;;
68655;SDS011;55638;51.122;13.606;2023-06-01T08:22:21;1.92;;;1.45;;
68655;SDS011;55638;51.122;13.606;2023-06-01T08:23:53;1.88;;;1.40;;
68655;SDS011;55638;51.122;13.606;2023-06-01T08:25:27;2.35;;;1.60;;
68655;SDS011;55638;51.122;13.606;2023-06-01T08:26:59;1.95;;;1.70;;
68655;SDS011;55638;51.122;13.606;2023-06-01T08:28:32;1.85;;;1.55;;
68655;SDS011;55638;51.122;13.606;2023-06-01T08:30:04;2.10;;;1.30;;
68655;SDS011;55638;51.122;13.606;2023-06-01T08:31:37;1.40;;;1.30;;
68655;SDS011;55638;51.122;13.606;2023-06-01T08:33:09;2.67;;;1.67;;
68655;SDS011;55638;51.122;13.606;2023-06-01T08:34:45;1.73;;;1.38;;
68655;SDS011;55638;51.122;13.606;2023-06-01T08:36:19;4.93;;;1.77;;
68655;SDS011;55638;51.122;13.606;2023-06-01T08:37:51;2.67;;;1.45;;
68655;SDS011;55638;51.122;13.606;2023-06-01T08:39:23;1.50;;;1.35;;
68655;SDS011;55638;51.122;13.606;2023-06-01T08:40:55;2.17;;;1.30;;
68655;SDS011;55638;51.122;13.606;2023-06-01T08:44:14;1.45;;;1.10;;
68655;SDS011;55638;51.122;13.606;2023-06-01T08:45:49;1.50;;;1.17;;
68655;SDS011;55638;51.122;13.606;2023-06-01T08:47:26;1.90;;;1.38;;
68655;SDS011;55638;51.122;13.606;2023-06-01T08:48:58;1.52;;;1.23;;
68655;SDS011;55638;51.122;13.606;2023-06-01T08:50:31;1.98;;;1.30;;
68655;SDS011;55638;51.122;13.606;2023-06-01T08:52:04;1.77;;;1.17;;
68655;SDS011;55638;51.122;13.606;2023-06-01T08:53:49;2.38;;;1.33;;
68655;SDS011;55638;51.122;13.606;2023-06-01T08:55:22;2.95;;;2.00;;
68655;SDS011;55638;51.122;13.606;2023-06-01T08:56:54;4.95;;;1.80;;
68655;SDS011;55638;51.122;13.606;2023-06-01T08:58:26;2.00;;;1.50;;
68655;SDS011;55638;51.122;13.606;2023-06-01T08:59:59;1.77;;;1.50;;
68655;SDS011;55638;51.122;13.606;2023-06-01T09:01:31;2.50;;;1.63;;
68655;SDS011;55638;51.122;13.606;2023-06-01T09:03:04;2.28;;;1.60;;
68655;SDS011;55638;51.122;13.606;2023-06-01T09:04:39;1.95;;;1.75;;
68655;SDS011;55638;51.122;13.606;2023-06-01T09:06:14;2.67;;;1.50;;
68655;SDS011;55638;51.122;13.606;2023-06-01T09:07:46;1.90;;;1.52;;
68655;SDS011;55638;51.122;13.606;2023-06-01T09:09:20;4.60;;;1.60;;
68655;SDS011;55638;51.122;13.606;2023-06-01T09:10:52;1.90;;;1.50;;
68655;SDS011;55638;51.122;13.606;2023-06-01T09:12:24;1.38;;;1.20;;
68655;SDS011;55638;51.122;13.606;2023-06-01T09:14:00;1.27;;;1.17;;
68655;SDS011;55638;51.122;13.606;2023-06-01T09:15:32;6.07;;;1.65;;
68655;SDS011;55638;51.122;13.606;2023-06-01T09:17:04;2.58;;;1.65;;
68655;SDS011;55638;51.122;13.606;2023-06-01T09:18:36;1.75;;;1.35;;
68655;SDS011;55638;51.122;13.606;2023-06-01T09:20:24;2.10;;;1.80;;
68655;SDS011;55638;51.122;13.606;2023-06-01T09:21:59;1.90;;;1.45;;
68655;SDS011;55638;51.122;13.606;2023-06-01T09:23:31;2.35;;;1.30;;